Time;durP1;ratioP1;P1;durP2;ratioP2;P2;SDS_P1;SDS_P2;PMS_P1;PMS_P2;Temp;Humidity;BMP_temperature;BMP_pressure;BME280_temperature;BME280_humidity;BME280_pressure;Samples;Min_cycle;Max_cycle;Signal;HPM_P1;HPM_P2
2023/03/19 00:02:14;;;;;;;9.50;4.38;;;12.80;85.50;;;12.18;68.33;100123.34;5041044;28;20045;-92
2023/03/19 00:04:41;;;;;;;12.13;5.05;;;12.80;85.50;;;12.15;68.39;100123.84;5049980;28;20112;-87
2023/03/19 00:07:10;;;;;;;11.05;4.93;;;12.80;85.50;;;12.15;68.56;100126.50;5049014;28;20045;-88
2023/03/19 00:09:37;;;;;;;10.88;5.07;;;12.80;85.70;;;12.13;68.59;100117.88;5049007;28;20063;-87
2023/03/19 00:12:05;;;;;;;10.57;5.22;;;12.80;85.70;;;12.14;68.69;100121.38;5048735;28;20515;-88
2023/03/19 00:14:32;;;;;;;9.15;4.60;;;12.70;85.80;;;12.12;68.67;100121.59;5035345;28;20048;-89
2023/03/19 00:17:00;;;;;;;10.80;4.75;;;12.70;85.90;;;12.10;68.86;100116.50;5048632;28;20037;-88
2023/03/19 00:19:27;;;;;;;10.38;4.20;;;12.80;85.90;;;12.11;68.90;100117.31;5047365;28;20095;-89
2023/03/19 00:21:55;;;;;;;7.65;4.35;;;12.70;86.10;;;12.11;68.94;100128.00;5049242;28;20040;-86
2023/03/19 00:24:23;;;;;;;9.10;4.70;;;12.70;86.10;;;12.10;69.00;100129.88;5048684;28;20040;-86
2023/03/19 00:26:53;;;;;;;10.63;4.97;;;12.70;86.20;;;12.08;69.25;100136.47;5043808;28;20588;-89
2023/03/19 00:29:21;;;;;;;8.48;4.30;;;12.70;86.20;;;12.08;69.06;100152.50;5044372;28;20116;-90
2023/03/19 00:31:49;;;;;;;11.52;4.95;;;12.70;86.30;;;12.06;69.47;100144.72;5019379;28;20038;-87
2023/03/19 00:34:18;;;;;;;10.80;4.75;;;12.70;86.40;;;12.07;69.57;100150.88;5031857;28;20120;-88
2023/03/19 00:36:45;;;;;;;10.05;4.72;;;12.70;86.60;;;12.04;69.80;100160.16;5041321;28;20116;-88
2023/03/19 00:39:13;;;;;;;7.70;4.78;;;12.70;86.70;;;12.04;69.90;100141.44;5017218;28;20053;-89
2023/03/19 00:41:49;;;;;;;14.13;5.15;;;12.70;87.00;;;12.04;69.85;100140.66;5044531;28;20044;-88
2023/03/19 00:44:17;;;;;;;9.52;5.40;;;12.60;86.80;;;12.04;70.04;100149.47;5025772;28;20053;-91
2023/03/19 00:46:49;;;;;;;11.38;5.40;;;12.60;86.90;;;12.03;70.01;100144.38;5037341;28;20501;-89
2023/03/19 00:49:16;;;;;;;9.93;4.75;;;12.60;87.00;;;12.02;70.16;100132.06;5041006;28;20045;-91
2023/03/19 00:51:44;;;;;;;9.88;4.88;;;12.60;87.10;;;12.02;70.20;100124.03;5029451;28;20048;-87
2023/03/19 00:54:12;;;;;;;13.45;4.90;;;12.60;87.10;;;12.01;70.12;100125.09;5045287;28;20041;-87
2023/03/19 00:56:41;;;;;;;6.97;4.32;;;12.60;87.00;;;11.99;70.18;100130.63;5047654;28;20033;-88
2023/03/19 00:59:08;;;;;;;8.77;4.50;;;12.60;87.10;;;11.98;70.24;100137.03;5011706;28;20605;-88
2023/03/19 01:01:35;;;;;;;8.85;4.43;;;12.60;87.10;;;11.98;70.23;100141.56;5031489;28;20120;-87
2023/03/19 01:04:02;;;;;;;12.05;4.45;;;12.60;87.00;;;11.96;70.10;100141.00;5026798;28;20048;-88
2023/03/19 01:06:30;;;;;;;10.25;4.80;;;12.60;87.00;;;11.95;70.03;100134.00;5040972;28;20064;-88
2023/03/19 01:08:57;;;;;;;13.80;5.15;;;12.60;86.90;;;11.93;69.79;100131.56;5036954;28;20151;-88
2023/03/19 01:11:25;;;;;;;6.95;4.35;;;12.60;86.80;;;11.93;69.96;100138.75;5028065;28;20156;-90
2023/03/19 01:13:54;;;;;;;9.52;4.35;;;12.50;86.80;;;11.91;69.75;100135.50;5024726;28;20466;-88
2023/03/19 01:16:22;;;;;;;8.32;4.78;;;12.50;86.80;;;11.88;69.59;100135.97;5023348;28;20049;-86
2023/03/19 01:18:49;;;;;;;8.13;4.35;;;12.50;86.70;;;11.85;69.67;100132.69;5030206;28;20041;-86
2023/03/19 01:21:17;;;;;;;10.55;5.20;;;12.50;86.60;;;11.83;69.72;100125.97;5028474;28;20049;-88
2023/03/19 01:23:47;;;;;;;8.35;4.53;;;12.50;86.60;;;11.80;69.42;100137.88;5012886;28;20041;-87
2023/03/19 01:26:15;;;;;;;8.75;4.78;;;12.40;86.50;;;11.78;69.48;100131.94;5018090;28;20099;-87
2023/03/19 01:28:42;;;;;;;7.13;4.45;;;12.40;86.50;;;11.78;69.42;100134.63;5023067;28;20048;-89
2023/03/19 01:31:11;;;;;;;9.98;4.97;;;12.40;86.30;;;11.77;69.27;100137.53;5027440;28;20505;-90
2023/03/19 01:33:57;;;;;;;9.05;4.68;;;12.30;86.30;;;11.74;69.38;100141.44;5045946;28;20623;-85
2023/03/19 01:36:46;;;;;;;13.75;4.88;;;12.30;86.30;;;11.75;69.03;100143.06;5024549;28;20045;-88
2023/03/19 01:39:16;;;;;;;7.93;4.47;;;12.40;86.30;;;11.73;69.08;100136.34;5019473;28;20135;-88
2023/03/19 01:41:44;;;;;;;10.40;4.65;;;12.30;86.10;;;11.72;69.11;100132.88;5027206;28;20073;-87
2023/03/19 01:44:50;;;;;;;10.38;4.60;;;12.30;86.10;;;11.70;68.84;100132.25;5004215;28;20042;-87
2023/03/19 01:47:57;;;;;;;7.70;4.47;;;12.30;86.10;;;11.67;68.73;100124.72;4950345;28;20576;-87
2023/03/19 01:50:43;;;;;;;7.68;4.10;;;12.30;86.00;;;11.64;68.68;100119.81;4950164;29;20600;-87
2023/03/19 01:53:30;;;;;;;9.07;4.28;;;12.50;86.10;;;11.63;68.43;100128.88;4999668;28;20045;-87
2023/03/19 01:56:16;;;;;;;8.20;4.30;;;12.20;85.70;;;11.60;68.39;100118.63;5028544;28;20075;-89
2023/03/19 01:59:08;;;;;;;7.85;3.92;;;12.20;85.70;;;11.57;68.21;100114.56;5032846;28;20060;-89
2023/03/19 02:01:53;;;;;;;10.60;4.85;;;12.10;85.60;;;11.55;68.22;100107.81;5023515;28;20041;-86
2023/03/19 02:04:23;;;;;;;8.77;4.40;;;12.10;85.70;;;11.52;68.41;100110.97;5032134;28;20051;-88
2023/03/19 02:06:50;;;;;;;8.45;4.22;;;12.10;85.70;;;11.50;68.37;100118.38;5027020;28;20133;-86
2023/03/19 02:09:19;;;;;;;7.95;4.72;;;12.10;85.80;;;11.49;68.44;100111.41;5052469;28;20037;-88
2023/03/19 02:11:46;;;;;;;7.55;4.93;;;12.10;86.00;;;11.46;68.67;100112.66;5031379;28;20041;-89
2023/03/19 02:14:13;;;;;;;11.27;4.85;;;12.00;85.90;;;11.45;68.55;100111.03;5023032;28;20499;-88
2023/03/19 02:16:41;;;;;;;9.57;4.47;;;12.00;85.90;;;11.44;68.37;100116.59;5050001;28;20066;-88
2023/03/19 02:19:13;;;;;;;6.90;4.30;;;12.00;85.90;;;11.42;68.50;100105.31;5030771;28;20115;-90
2023/03/19 02:21:42;;;;;;;10.02;4.50;;;12.00;85.90;;;11.41;68.47;100114.38;5044457;28;20112;-88
2023/03/19 02:24:17;;;;;;;8.07;4.70;;;12.00;86.00;;;11.40;68.66;100115.41;5029530;28;20067;-86
2023/03/19 02:26:58;;;;;;;8.50;4.57;;;12.00;86.00;;;11.38;68.39;100117.50;5016272;28;20053;-88
2023/03/19 02:29:25;;;;;;;7.57;4.20;;;12.00;85.90;;;11.37;68.42;100113.19;5049382;28;20493;-88
2023/03/19 02:31:54;;;;;;;10.48;4.40;;;11.90;85.90;;;11.33;68.29;100113.66;5033055;28;20048;-88
2023/03/19 02:34:37;;;;;;;7.20;4.18;;;11.90;86.00;;;11.32;68.43;100114.69;5028590;28;20135;-88
2023/03/19 02:37:14;;;;;;;8.80;4.20;;;11.90;86.10;;;11.32;68.39;100114.69;5048973;28;20517;-87
2023/03/19 02:39:58;;;;;;;6.30;3.92;;;11.90;86.10;;;11.30;68.64;100111.41;5027338;28;20128;-90
2023/03/19 02:42:28;;;;;;;8.90;4.38;;;11.90;86.20;;;11.29;68.56;100112.47;5046660;28;20053;-86
2023/03/19 02:44:57;;;;;;;8.23;4.10;;;11.90;86.10;;;11.28;68.49;100105.50;5022648;28;20119;-90
2023/03/19 02:47:24;;;;;;;8.43;4.10;;;11.90;86.10;;;11.26;68.51;100104.91;5036189;28;20063;-87
2023/03/19 02:49:52;;;;;;;8.27;4.50;;;11.90;86.20;;;11.26;68.61;100109.44;5028162;28;20523;-86
2023/03/19 02:52:19;;;;;;;8.52;4.28;;;11.90;86.20;;;11.26;68.73;100109.44;5030748;28;20320;-90
2023/03/19 02:54:47;;;;;;;8.23;3.97;;;11.80;86.10;;;11.24;68.83;100112.31;5016590;28;20076;-92
2023/03/19 02:57:14;;;;;;;8.88;3.90;;;11.80;86.30;;;11.24;68.96;100101.66;5021511;28;20037;-87
2023/03/19 02:59:43;;;;;;;7.57;4.22;;;11.80;86.40;;;11.26;69.03;100106.75;5017420;28;20139;-88
2023/03/19 03:02:11;;;;;;;5.82;3.53;;;11.80;86.50;;;11.27;69.15;100116.38;5026356;28;20413;-91
2023/03/19 03:04:38;;;;;;;8.77;4.10;;;11.90;86.70;;;11.27;69.15;100111.88;5039152;28;20391;-88
2023/03/19 03:07:06;;;;;;;6.75;4.07;;;11.90;86.70;;;11.30;69.16;100102.59;5043377;28;20124;-88
2023/03/19 03:09:33;;;;;;;8.60;3.97;;;11.90;86.70;;;11.30;69.40;100111.41;5032416;28;20461;-91
2023/03/19 03:12:00;;;;;;;6.20;3.80;;;11.90;86.90;;;11.32;69.49;100111.19;5050519;28;20043;-89
2023/03/19 03:14:28;;;;;;;8.70;4.07;;;11.90;86.90;;;11.30;69.67;100110.59;5050377;28;20048;-88
2023/03/19 03:16:57;;;;;;;7.88;4.05;;;11.90;87.00;;;11.31;69.81;100113.03;5031157;28;20047;-87
2023/03/19 03:19:24;;;;;;;7.00;4.10;;;11.90;87.10;;;11.32;69.84;100111.19;5035210;28;20057;-87
2023/03/19 03:21:51;;;;;;;7.90;3.80;;;11.90;87.20;;;11.31;70.03;100107.72;5047791;28;20041;-88
2023/03/19 03:24:19;;;;;;;6.53;3.65;;;11.90;87.20;;;11.33;70.04;100113.66;5040526;28;20487;-87
2023/03/19 03:26:46;;;;;;;8.23;3.75;;;11.90;87.30;;;11.34;70.13;100106.47;5036581;28;20049;-88
2023/03/19 03:29:15;;;;;;;10.48;4.20;;;11.90;87.30;;;11.34;70.01;100120.63;5019577;28;20084;-88
2023/03/19 03:31:45;;;;;;;7.82;3.75;;;12.00;87.30;;;11.35;70.08;100122.25;5038019;28;20572;-87
2023/03/19 03:34:13;;;;;;;8.13;3.70;;;12.00;87.40;;;11.37;70.16;100119.38;5050118;28;20042;-87
2023/03/19 03:36:41;;;;;;;9.30;4.20;;;12.00;87.40;;;11.39;70.42;100124.47;5043408;28;20042;-88
2023/03/19 03:39:08;;;;;;;7.97;4.18;;;12.00;87.40;;;11.40;70.33;100120.75;5044066;28;20079;-88
2023/03/19 03:41:35;;;;;;;8.68;3.70;;;12.00;87.40;;;11.41;70.18;100125.88;5016989;28;20045;-87
2023/03/19 03:44:03;;;;;;;8.88;3.92;;;12.00;87.40;;;11.43;70.47;100125.66;5025193;28;20144;-87
2023/03/19 03:46:33;;;;;;;9.02;4.05;;;12.00;87.40;;;11.44;70.32;100122.75;5021849;28;20564;-87
2023/03/19 03:49:11;;;;;;;7.15;3.70;;;12.00;87.30;;;11.46;70.29;100122.53;5030041;28;20506;-89
2023/03/19 03:51:42;;;;;;;8.27;4.30;;;12.10;87.50;;;11.48;70.31;100123.13;5015284;28;20047;-88
2023/03/19 03:54:10;;;;;;;8.75;3.80;;;12.10;87.40;;;11.49;70.52;100128.22;5031366;28;20307;-88
2023/03/19 03:56:37;;;;;;;7.75;3.85;;;12.10;87.50;;;11.50;70.33;100124.50;5030107;28;20045;-86
2023/03/19 03:59:04;;;;;;;6.80;3.53;;;12.10;87.40;;;11.50;70.41;100119.19;5030471;28;20053;-87
2023/03/19 04:01:31;;;;;;;7.78;3.67;;;12.10;87.40;;;11.51;70.42;100123.47;5043245;28;20048;-89
2023/03/19 04:03:58;;;;;;;7.88;3.63;;;12.10;87.40;;;11.52;70.44;100126.97;5019273;28;20041;-87
2023/03/19 04:06:27;;;;;;;6.80;3.75;;;12.10;87.50;;;11.53;70.54;100125.94;5041932;28;20433;-87
2023/03/19 04:09:28;;;;;;;8.48;3.80;;;12.10;87.60;;;11.52;70.60;100127.78;5012915;28;20050;-87
2023/03/19 04:11:55;;;;;;;6.28;3.47;;;12.10;87.60;;;11.53;70.72;100133.94;5024091;28;20045;-88
2023/03/19 04:14:22;;;;;;;9.25;3.90;;;12.10;87.60;;;11.54;70.78;100127.56;5021701;28;20050;-86
2023/03/19 04:16:50;;;;;;;8.18;3.65;;;12.20;87.60;;;11.55;70.64;100134.53;5026607;28;20045;-87
2023/03/19 04:19:18;;;;;;;9.98;4.32;;;12.20;87.50;;;11.54;70.72;100136.38;5024507;28;20094;-88
2023/03/19 04:21:45;;;;;;;6.55;3.47;;;12.10;87.50;;;11.53;70.66;100145.44;5028883;28;20051;-87
2023/03/19 04:24:13;;;;;;;9.00;3.58;;;12.20;87.50;;;11.54;70.43;100138.25;5013532;28;20037;-88
2023/03/19 04:26:42;;;;;;;6.43;3.28;;;12.20;87.50;;;11.54;70.41;100141.72;5041556;28;20037;-86
2023/03/19 04:29:09;;;;;;;8.27;3.50;;;12.20;87.40;;;11.53;70.59;100144.63;5031158;28;20041;-85
2023/03/19 04:31:38;;;;;;;6.93;3.70;;;12.20;87.50;;;11.53;70.46;100144.63;5024224;28;20072;-87
2023/03/19 04:34:05;;;;;;;7.47;3.63;;;12.20;87.40;;;11.54;70.38;100156.94;5028759;28;20057;-89
2023/03/19 04:36:32;;;;;;;7.75;3.45;;;12.10;87.30;;;11.54;70.39;100156.94;5048187;28;20037;-88
2023/03/19 04:39:00;;;;;;;9.60;3.63;;;12.20;87.40;;;11.54;70.30;100157.75;5027425;28;20051;-89
2023/03/19 04:41:28;;;;;;;8.30;3.58;;;12.10;87.30;;;11.56;70.27;100165.53;5029702;28;20048;-87
2023/03/19 04:44:15;;;;;;;10.25;4.07;;;12.20;87.30;;;11.57;70.44;100169.84;5042787;28;20174;-89
2023/03/19 04:46:43;;;;;;;8.27;3.47;;;12.20;87.40;;;11.59;70.24;100165.09;5023400;28;20048;-86
2023/03/19 04:49:11;;;;;;;6.93;3.35;;;12.20;87.30;;;11.60;70.29;100169.38;5048948;28;20099;-87
2023/03/19 04:51:39;;;;;;;8.55;3.35;;;12.20;87.30;;;11.62;70.39;100169.19;5029671;28;20052;-86
2023/03/19 04:54:07;;;;;;;5.97;2.95;;;12.30;87.30;;;11.63;70.81;100171.63;5023058;28;20041;-86
2023/03/19 04:56:34;;;;;;;8.60;3.30;;;12.30;87.50;;;11.64;70.51;100173.25;5015243;28;20033;-85
2023/03/19 04:59:01;;;;;;;8.18;3.42;;;12.30;87.50;;;11.66;70.30;100179.16;5048823;28;20079;-85
2023/03/19 05:01:30;;;;;;;5.72;3.30;;;12.30;87.30;;;11.67;70.50;100178.13;5023838;28;20059;-88
2023/03/19 05:04:01;;;;;;;7.38;3.00;;;12.30;87.30;;;11.69;70.63;100172.56;5025706;28;20428;-86
2023/03/19 05:06:31;;;;;;;8.23;3.53;;;12.30;87.50;;;11.70;70.53;100172.31;5030282;28;20409;-85
2023/03/19 05:08:59;;;;;;;8.95;3.45;;;12.30;87.30;;;11.72;70.32;100172.94;5030761;28;20076;-89
2023/03/19 05:11:26;;;;;;;7.05;3.50;;;12.40;87.30;;;11.73;70.46;100169.22;5023893;28;20132;-85
2023/03/19 05:14:04;;;;;;;8.07;3.13;;;12.40;87.20;;;11.73;70.39;100177.22;5029289;28;20059;-88
2023/03/19 05:16:47;;;;;;;7.40;3.30;;;12.40;87.20;;;11.76;70.42;100179.47;5028857;28;20132;-87
2023/03/19 05:19:15;;;;;;;8.63;2.85;;;12.60;87.30;;;11.77;70.45;100175.75;5030833;28;20049;-87
2023/03/19 05:21:42;;;;;;;8.00;3.30;;;12.40;87.30;;;11.78;70.43;100177.38;5025127;28;20084;-90
2023/03/19 05:24:09;;;;;;;8.00;3.53;;;12.40;87.20;;;11.77;70.52;100170.41;5018457;28;20088;-89
2023/03/19 05:26:37;;;;;;;6.45;3.60;;;12.50;87.30;;;11.78;70.64;100180.03;5026997;28;20584;-86
2023/03/19 05:29:13;;;;;;;6.80;3.28;;;12.50;87.60;;;11.78;70.63;100177.38;5033463;28;20057;-86
2023/03/19 05:31:56;;;;;;;7.35;3.05;;;12.40;87.30;;;11.78;70.59;100180.03;5016228;28;20054;-87
2023/03/19 05:34:23;;;;;;;6.57;3.38;;;12.40;87.50;;;11.79;70.58;100191.53;5022186;28;20501;-87
2023/03/19 05:36:51;;;;;;;6.47;3.05;;;12.50;87.40;;;11.79;70.88;100186.19;5029902;28;20041;-88
2023/03/19 05:39:19;;;;;;;6.07;3.38;;;12.40;87.60;;;11.78;71.05;100185.38;5029546;28;20077;-88
2023/03/19 05:41:46;;;;;;;7.78;3.47;;;12.40;87.70;;;11.77;71.13;100189.09;5028927;28;20456;-87
2023/03/19 05:44:19;;;;;;;6.75;3.28;;;12.40;87.70;;;11.78;70.97;100189.91;5014851;28;20050;-89
2023/03/19 05:47:04;;;;;;;6.90;3.03;;;12.40;87.50;;;11.78;71.36;100190.72;5029623;28;20122;-87
2023/03/19 05:49:35;;;;;;;7.45;3.53;;;12.50;87.90;;;11.78;71.08;100190.72;5042742;28;20154;-87
2023/03/19 05:52:04;;;;;;;6.50;3.40;;;12.50;87.70;;;11.78;71.07;100196.06;5029237;28;20087;-86
2023/03/19 05:54:32;;;;;;;6.72;3.47;;;12.40;87.70;;;11.80;71.18;100202.00;5014831;28;20048;-86
2023/03/19 05:57:08;;;;;;;9.35;3.50;;;12.40;87.70;;;11.79;71.34;100192.34;5057119;22;20079;-77
2023/03/19 05:59:55;;;;;;;7.50;3.95;;;12.50;87.90;;;11.80;71.42;100198.50;5042243;28;20060;-77
2023/03/19 06:02:43;;;;;;;8.40;3.92;;;12.50;87.90;;;11.80;71.51;100204.66;5047825;28;20060;-77
2023/03/19 06:05:25;;;;;;;9.32;3.75;;;12.50;88.10;;;11.80;71.71;100206.53;5051011;28;20049;-77
2023/03/19 06:07:56;;;;;;;9.23;3.70;;;12.50;88.30;;;11.79;71.99;100203.03;5045030;28;20047;-80
2023/03/19 06:10:31;;;;;;;12.38;4.30;;;12.40;88.50;;;11.79;72.21;100215.59;5046601;28;20041;-80
2023/03/19 06:13:01;;;;;;;6.53;3.83;;;12.40;88.60;;;11.78;72.21;100217.44;5046869;28;20724;-77
2023/03/19 06:15:37;;;;;;;7.70;3.70;;;12.40;88.70;;;11.79;72.36;100224.41;5046314;28;20152;-78
2023/03/19 06:18:13;;;;;;;8.70;4.35;;;12.40;88.80;;;11.79;72.65;100229.75;5037280;28;20053;-78
2023/03/19 06:20:40;;;;;;;8.48;3.75;;;12.50;89.20;;;11.78;72.74;100216.63;5054283;28;20070;-77
2023/03/19 06:23:10;;;;;;;9.23;4.55;;;12.40;89.10;;;11.78;72.59;100228.13;5038949;28;20068;-80
2023/03/19 06:25:37;;;;;;;5.88;4.00;;;12.40;89.10;;;11.77;73.17;100217.69;5037017;28;20063;-81
2023/03/19 06:28:05;;;;;;;10.40;4.72;;;12.40;89.40;;;11.76;73.50;100227.56;5047519;28;20379;-78
2023/03/19 06:30:37;;;;;;;6.95;3.95;;;12.40;90.00;;;11.74;73.39;100232.28;5049538;28;20691;-77
2023/03/19 06:33:09;;;;;;;10.82;4.22;;;12.40;89.60;;;11.76;73.28;100232.06;5050534;28;20049;-79
2023/03/19 06:35:38;;;;;;;7.22;4.50;;;12.40;89.30;;;11.76;73.25;100235.56;5032796;28;20079;-80
2023/03/19 06:38:06;;;;;;;8.02;4.28;;;12.40;89.60;;;11.76;73.01;100240.06;5050401;28;20053;-78
2023/03/19 06:40:33;;;;;;;7.35;4.40;;;12.40;89.60;;;11.77;73.66;100236.38;5050211;28;20115;-80
2023/03/19 06:43:00;;;;;;;9.65;4.65;;;12.40;89.70;;;11.76;73.80;100235.56;5050479;28;20041;-78
2023/03/19 06:45:27;;;;;;;7.90;4.45;;;12.40;89.70;;;11.77;73.26;100239.06;5042334;28;20061;-78
2023/03/19 06:47:54;;;;;;;10.68;4.80;;;12.40;89.50;;;11.78;73.38;100240.69;5050078;28;20041;-80
2023/03/19 06:50:22;;;;;;;8.77;4.97;;;12.40;89.50;;;11.78;73.55;100244.16;5051326;28;20041;-81
2023/03/19 06:52:50;;;;;;;8.30;4.78;;;12.40;89.70;;;11.79;73.63;100244.97;5050769;28;20037;-79
2023/03/19 06:55:19;;;;;;;9.52;4.30;;;12.40;89.70;;;11.79;73.74;100245.78;5051543;28;20046;-82
2023/03/19 06:57:50;;;;;;;9.32;4.57;;;12.40;89.70;;;11.80;73.50;100246.59;5060452;28;20113;-82
2023/03/19 07:00:19;;;;;;;11.15;5.55;;;12.40;89.60;;;11.80;73.59;100246.59;5070202;28;20055;-85
2023/03/19 07:02:46;;;;;;;10.25;4.45;;;12.50;89.70;;;11.80;73.44;100251.94;5071161;28;20052;-82
2023/03/19 07:05:13;;;;;;;7.07;4.32;;;12.50;89.60;;;11.80;73.62;100258.09;5070666;28;20431;-82
2023/03/19 07:07:41;;;;;;;9.07;4.22;;;12.50;89.60;;;11.81;73.51;100251.75;5066457;28;20041;-82
2023/03/19 07:10:11;;;;;;;8.90;4.88;;;12.50;89.60;;;11.83;73.51;100252.34;5067368;28;20044;-81
2023/03/19 07:12:38;;;;;;;9.98;4.28;;;12.50;89.70;;;11.83;73.61;100262.22;5069666;28;20056;-80
2023/03/19 07:15:07;;;;;;;9.13;4.80;;;12.50;89.70;;;11.84;73.73;100255.84;5064206;28;20139;-81
2023/03/19 07:17:34;;;;;;;8.95;5.00;;;12.50;89.80;;;11.85;73.81;100266.28;5069207;28;20037;-82
2023/03/19 07:20:01;;;;;;;7.68;4.80;;;12.50;89.70;;;11.85;74.00;100260.13;5073962;28;20048;-85
2023/03/19 07:22:28;;;;;;;12.57;4.75;;;12.50;90.00;;;11.87;73.93;100270.63;5071283;28;20090;-82
2023/03/19 07:24:55;;;;;;;7.80;4.68;;;12.50;89.80;;;11.88;74.13;100277.59;5067713;28;20527;-81
2023/03/19 07:27:24;;;;;;;9.63;4.55;;;12.60;90.10;;;11.89;74.27;100265.84;5069341;28;20050;-80
2023/03/19 07:29:51;;;;;;;8.98;4.80;;;12.50;90.20;;;11.88;74.38;100267.72;5066896;28;20124;-81
2023/03/19 07:32:18;;;;;;;8.48;4.72;;;12.60;90.20;;;11.90;74.70;100267.47;5070682;28;20563;-83
2023/03/19 07:34:45;;;;;;;9.27;5.13;;;12.50;90.40;;;11.91;74.45;100275.28;5066898;28;20041;-83
2023/03/19 07:37:13;;;;;;;11.13;5.18;;;12.60;90.20;;;11.92;74.58;100276.91;5064725;28;20052;-83
2023/03/19 07:39:40;;;;;;;7.63;4.78;;;12.50;90.30;;;11.93;74.68;100280.41;5069681;28;20038;-82
2023/03/19 07:42:07;;;;;;;8.73;4.70;;;12.60;90.30;;;11.96;74.06;100287.97;5069690;28;20299;-82
2023/03/19 07:44:36;;;;;;;7.85;5.18;;;12.60;90.00;;;11.98;74.16;100280.53;5069201;28;20413;-83
2023/03/19 07:47:03;;;;;;;7.43;4.65;;;12.60;89.90;;;11.99;74.19;100282.16;5068723;28;20048;-81
2023/03/19 07:49:30;;;;;;;7.10;4.13;;;12.70;90.00;;;12.00;74.12;100281.13;5069257;28;20052;-83
2023/03/19 07:51:57;;;;;;;11.15;5.88;;;12.70;90.10;;;12.02;74.44;100282.53;5070614;28;20120;-83
2023/03/19 07:54:25;;;;;;;11.93;6.22;;;12.70;90.40;;;12.02;74.61;100282.53;5071272;28;20045;-81
2023/03/19 07:56:52;;;;;;;13.32;6.82;;;12.70;90.50;;;12.05;74.24;100289.28;5068741;28;20045;-83
2023/03/19 07:59:19;;;;;;;13.38;6.65;;;12.70;90.10;;;12.07;74.04;100289.88;5069833;28;20036;-84
2023/03/19 08:01:49;;;;;;;11.32;5.88;;;12.80;90.00;;;12.08;74.99;100295.00;5066948;28;20424;-83
2023/03/19 08:04:17;;;;;;;11.57;7.35;;;12.80;90.90;;;12.10;74.76;100289.41;5066464;28;20756;-84
2023/03/19 08:06:44;;;;;;;14.07;8.90;;;12.80;90.40;;;12.11;74.60;100296.41;5068854;28;20062;-83
2023/03/19 08:09:12;;;;;;;13.23;8.32;;;12.80;90.50;;;12.11;74.68;100297.22;5066050;28;20054;-83
2023/03/19 08:11:39;;;;;;;12.55;8.20;;;12.80;90.50;;;12.13;75.04;100297.00;5065512;28;20044;-84
2023/03/19 08:14:06;;;;;;;10.52;6.18;;;12.80;90.60;;;12.13;74.89;100304.22;5058111;28;20602;-84
2023/03/19 08:16:33;;;;;;;8.60;5.38;;;12.80;90.40;;;12.13;74.78;100305.03;5068805;28;20063;-84
2023/03/19 08:19:02;;;;;;;8.73;5.25;;;12.80;90.20;;;12.14;74.48;100303.97;5064410;28;20525;-83
2023/03/19 08:21:32;;;;;;;8.68;5.32;;;12.80;90.00;;;12.14;74.83;100306.66;5069571;28;20049;-82
2023/03/19 08:23:59;;;;;;;9.15;5.13;;;12.80;90.60;;;12.16;74.65;100303.78;5062234;28;20051;-84
2023/03/19 08:26:26;;;;;;;7.65;5.20;;;12.80;90.10;;;12.17;74.58;100310.75;5065723;28;20129;-81
2023/03/19 08:28:54;;;;;;;7.80;5.55;;;12.90;90.20;;;12.17;74.67;100306.22;5062909;28;20497;-82
2023/03/19 08:31:21;;;;;;;9.68;5.57;;;12.90;90.40;;;12.19;74.95;100325.50;5056777;28;20048;-83
2023/03/19 08:33:48;;;;;;;10.60;4.57;;;12.80;90.70;;;12.20;74.77;100320.97;5056900;28;20323;-82
2023/03/19 08:36:17;;;;;;;7.43;4.80;;;12.90;90.40;;;12.22;75.20;100330.41;5051451;28;20052;-82
2023/03/19 08:38:44;;;;;;;8.18;4.70;;;12.90;91.00;;;12.22;75.10;100325.06;5067864;28;20115;-82
2023/03/19 08:41:11;;;;;;;10.70;4.72;;;12.90;90.70;;;12.23;75.14;100329.34;5067937;28;20041;-82
2023/03/19 08:43:39;;;;;;;8.38;4.85;;;12.90;90.70;;;12.24;74.89;100336.34;5069522;28;20056;-83
2023/03/19 08:46:06;;;;;;;9.50;5.20;;;13.00;90.40;;;12.25;75.17;100332.63;5060903;28;20037;-91
2023/03/19 08:48:33;;;;;;;7.60;4.90;;;12.90;91.00;;;12.26;74.97;100331.59;5067375;28;20051;-86
2023/03/19 08:51:03;;;;;;;9.13;5.00;;;12.90;90.50;;;12.27;74.87;100338.56;5060344;28;20501;-87
2023/03/19 08:53:33;;;;;;;10.05;5.53;;;13.00;90.40;;;12.30;74.79;100340.00;5057603;28;20397;-86
2023/03/19 08:56:05;;;;;;;11.23;5.85;;;13.00;90.30;;;12.31;74.63;100334.41;5058631;28;20047;-87
2023/03/19 08:58:32;;;;;;;8.82;5.60;;;13.00;90.40;;;12.34;75.65;100339.28;5056532;28;20043;-86
2023/03/19 09:01:04;;;;;;;9.27;5.38;;;13.00;91.00;;;12.37;76.32;100341.53;5051229;28;20056;-86
2023/03/19 09:03:32;;;;;;;9.20;5.55;;;13.00;91.50;;;12.40;75.93;100337.59;5056612;28;20685;-87
2023/03/19 09:06:00;;;;;;;10.32;5.15;;;13.10;91.30;;;12.41;75.57;100344.56;5060480;28;20040;-90
2023/03/19 09:08:27;;;;;;;13.05;5.88;;;13.10;91.00;;;12.45;75.32;100339.59;5063787;28;20040;-87
2023/03/19 09:10:56;;;;;;;9.63;5.80;;;13.20;90.80;;;12.46;75.10;100344.69;5057154;28;20114;-87
2023/03/19 09:13:25;;;;;;;8.35;5.15;;;13.10;90.60;;;12.50;74.78;100345.06;5051747;28;20049;-90
2023/03/19 09:15:52;;;;;;;9.52;5.47;;;13.20;90.30;;;12.53;74.67;100344.59;5056150;28;20048;-87
2023/03/19 09:18:24;;;;;;;7.32;4.97;;;13.20;90.20;;;12.54;75.02;100333.69;5066717;28;20048;-86
2023/03/19 09:20:52;;;;;;;8.35;5.25;;;13.20;90.40;;;12.57;75.06;100333.22;5068846;28;20043;-87
2023/03/19 09:23:20;;;;;;;10.25;5.03;;;13.30;90.40;;;12.59;74.61;100341.84;5067805;28;20052;-89
2023/03/19 09:25:47;;;;;;;8.02;4.70;;;13.40;90.20;;;12.60;73.65;100332.78;5060433;28;20049;-88
2023/03/19 09:28:16;;;;;;;8.27;4.75;;;13.30;89.40;;;12.62;74.63;100336.03;5068196;28;20047;-86
2023/03/19 09:30:45;;;;;;;8.73;5.22;;;13.40;90.20;;;12.64;74.17;100330.47;5061216;28;20519;-87
2023/03/19 09:33:12;;;;;;;8.55;4.50;;;13.40;89.70;;;12.68;74.21;100338.84;5049255;28;20041;-87
2023/03/19 09:35:39;;;;;;;9.93;4.45;;;13.40;89.70;;;12.71;74.61;100341.88;5061412;28;20059;-89
2023/03/19 09:38:06;;;;;;;8.18;3.95;;;13.40;89.70;;;12.75;73.84;100344.91;5064445;28;20036;-87
2023/03/19 09:40:38;;;;;;;7.65;4.40;;;13.50;89.50;;;12.79;73.85;100346.09;5068867;28;20501;-88
2023/03/19 09:43:31;;;;;;;6.32;4.22;;;13.50;89.20;;;12.81;74.24;100347.50;5067236;28;20041;-89
2023/03/19 09:46:04;;;;;;;6.30;4.20;;;13.60;89.70;;;12.85;73.84;100358.56;5068390;28;20493;-87
2023/03/19 09:48:40;;;;;;;7.10;4.35;;;13.60;89.30;;;12.86;73.99;100352.97;5064438;28;20036;-87
2023/03/19 09:51:15;;;;;;;5.95;4.30;;;13.60;89.50;;;12.92;74.39;100358.44;5056724;28;20528;-87
2023/03/19 09:53:50;;;;;;;7.57;4.53;;;13.60;89.80;;;12.95;75.06;100360.69;5061403;28;20576;-87
2023/03/19 09:56:18;;;;;;;7.55;4.45;;;13.70;90.30;;;12.99;74.68;100367.22;5064788;28;20157;-88
2023/03/19 09:58:47;;;;;;;5.85;3.90;;;13.70;89.50;;;12.99;73.32;100362.66;5060403;28;20128;-89
2023/03/19 10:01:27;;;;;;;6.45;4.35;;;13.80;88.70;;;13.01;72.73;100367.78;5060645;28;20043;-88
2023/03/19 10:04:20;;;;;;;9.02;4.90;;;13.70;88.10;;;13.01;72.64;100368.59;5059286;28;20041;-90
2023/03/19 10:06:47;;;;;;;7.45;5.13;;;13.80;88.20;;;13.02;72.60;100370.22;5062259;28;20492;-87
2023/03/19 10:09:41;;;;;;;7.95;5.13;;;13.80;88.30;;;13.04;73.26;100370.00;5063701;28;20036;-87
2023/03/19 10:12:26;;;;;;;9.20;5.57;;;13.80;88.60;;;13.07;73.50;100365.00;5059162;28;20687;-86
2023/03/19 10:15:21;;;;;;;8.95;5.60;;;13.90;89.10;;;13.10;74.93;100369.91;5058865;28;20044;-88
2023/03/19 10:18:03;;;;;;;8.13;6.00;;;13.90;90.10;;;13.11;74.60;100370.72;5065460;28;20041;-88
2023/03/19 10:20:50;;;;;;;7.53;5.20;;;13.90;89.70;;;13.14;74.18;100371.06;5071805;28;20053;-87
2023/03/19 10:23:37;;;;;;;8.95;6.30;;;13.90;89.50;;;13.17;74.23;100369.78;5067781;28;20044;-83
2023/03/19 10:26:09;;;;;;;7.80;6.30;;;14.00;89.60;;;13.18;74.32;100379.47;5069675;28;20036;-87